Time;durP1;ratioP1;P1;durP2;ratioP2;P2;SDS_P1;SDS_P2;PMS_P1;PMS_P2;Temp;Humidity;BMP_temperature;BMP_pressure;BME280_temperature;BME280_humidity;BME280_pressure;Samples;Min_cycle;Max_cycle;Signal;HPM_P1;HPM_P2
2023/01/26 00:00:55;;;;;;;28.80;12.95;;;;;;;-1.27;100.00;97824.38;4965652;28;20062;-62
2023/01/26 00:03:23;;;;;;;27.75;12.10;;;;;;;-1.27;100.00;97819.06;4954678;28;20075;-61
2023/01/26 00:05:49;;;;;;;30.55;13.23;;;;;;;-1.22;100.00;97799.97;4961777;28;20067;-61
2023/01/26 00:08:16;;;;;;;36.10;14.95;;;;;;;-1.14;100.00;97807.09;4966699;28;20043;-61
2023/01/26 00:10:49;;;;;;;40.10;14.95;;;;;;;-1.23;100.00;97801.78;4965446;28;20050;-62
2023/01/26 00:13:21;;;;;;;28.02;11.45;;;;;;;-1.20;100.00;97797.97;4965197;28;20050;-61
2023/01/26 00:15:48;;;;;;;29.40;11.27;;;;;;;-1.09;100.00;97796.81;4956227;28;20043;-60
2023/01/26 00:18:14;;;;;;;28.35;11.38;;;;;;;-1.18;100.00;97790.66;4964907;28;20069;-61
2023/01/26 00:20:41;;;;;;;23.42;10.23;;;;;;;-1.07;100.00;97792.97;4957603;28;20800;-61
2023/01/26 00:23:07;;;;;;;27.40;11.63;;;;;;;-1.07;100.00;97787.66;4959063;28;20047;-59
2023/01/26 00:25:36;;;;;;;24.88;11.70;;;;;;;-1.17;100.00;97776.38;4966679;28;20135;-60
2023/01/26 00:28:03;;;;;;;22.67;10.55;;;;;;;-1.12;100.00;97770.53;4961299;28;20042;-60
2023/01/26 00:30:30;;;;;;;31.08;13.07;;;;;;;-1.16;100.00;97762.09;4963202;28;20577;-59
2023/01/26 00:32:56;;;;;;;28.88;11.82;;;;;;;-1.18;100.00;97762.25;4959417;28;20546;-61
2023/01/26 00:35:23;;;;;;;25.90;10.93;;;;;;;-1.21;100.00;97770.56;4953969;28;20055;-61
2023/01/26 00:37:50;;;;;;;30.95;10.90;;;;;;;-1.13;100.00;97764.41;4965883;28;20051;-61
2023/01/26 00:40:16;;;;;;;24.35;10.50;;;;;;;-1.14;100.00;97759.28;4954697;28;20047;-60
2023/01/26 00:42:43;;;;;;;26.05;11.30;;;;;;;-1.06;100.00;97756.59;4961496;28;20126;-60
2023/01/26 00:45:09;;;;;;;26.17;12.85;;;;;;;-1.15;100.00;97757.63;4958363;28;20042;-61
2023/01/26 00:47:36;;;;;;;28.20;11.85;;;;;;;-1.43;100.00;97753.47;4959078;28;20039;-61
2023/01/26 00:50:04;;;;;;;25.23;10.05;;;;;;;-1.39;100.00;97757.44;4956073;28;20038;-59
2023/01/26 00:52:30;;;;;;;27.95;11.20;;;;;;;-1.27;100.00;97760.59;4957124;28;20453;-61
2023/01/26 00:54:58;;;;;;;29.30;11.32;;;;;;;-1.10;100.00;97749.97;4958428;28;20070;-60
2023/01/26 00:57:24;;;;;;;27.40;11.07;;;;;;;-1.01;100.00;97748.09;4963720;28;20133;-60
2023/01/26 00:59:50;;;;;;;21.85;10.32;;;;;;;-1.05;100.00;97750.28;4956790;28;20070;-61
2023/01/26 01:02:17;;;;;;;22.08;9.95;;;;;;;-1.10;100.00;97755.28;4962980;28;20051;-61
2023/01/26 01:04:43;;;;;;;24.95;11.35;;;;;;;-1.13;100.00;97755.59;4960809;28;20089;-61
2023/01/26 01:07:10;;;;;;;25.08;12.25;;;;;;;-1.10;100.00;97748.13;4960381;28;20046;-61
2023/01/26 01:09:37;;;;;;;23.75;11.75;;;;;;;-1.16;100.00;97748.81;4961417;28;20042;-61
2023/01/26 01:12:04;;;;;;;25.50;11.80;;;;;;;-1.20;100.00;97745.66;4957681;28;20696;-61
2023/01/26 01:14:30;;;;;;;25.88;10.77;;;;;;;-1.24;100.00;97743.50;4979510;28;20084;-60
2023/01/26 01:16:57;;;;;;;25.00;11.38;;;;;;;-1.26;100.00;97743.66;4962888;28;20122;-60
2023/01/26 01:19:23;;;;;;;28.67;12.15;;;;;;;-1.28;100.00;97748.31;4950083;28;20071;-60
2023/01/26 01:21:50;;;;;;;26.25;10.80;;;;;;;-1.24;100.00;97735.53;4955790;28;20054;-61
2023/01/26 01:24:16;;;;;;;26.23;10.95;;;;;;;-1.25;100.00;97742.66;4960839;28;20047;-60
2023/01/26 01:26:43;;;;;;;25.83;11.27;;;;;;;-1.31;100.00;97740.66;4954731;28;20126;-61
2023/01/26 01:29:12;;;;;;;24.90;10.25;;;;;;;-1.32;100.00;97739.03;4960226;28;20043;-61
2023/01/26 01:31:40;;;;;;;26.70;12.05;;;;;;;-1.26;100.00;97735.69;4961145;28;20125;-61
2023/01/26 01:34:06;;;;;;;28.52;11.45;;;;;;;-1.27;100.00;97739.34;4955436;28;20054;-61
2023/01/26 01:36:33;;;;;;;21.67;10.05;;;;;;;-1.22;100.00;97733.53;4955957;28;20050;-60
2023/01/26 01:39:00;;;;;;;26.88;11.30;;;;;;;-1.19;100.00;97734.03;4962451;28;20053;-60
2023/01/26 01:41:27;;;;;;;27.58;11.98;;;;;;;-1.21;100.00;97729.88;4954592;28;20055;-61
2023/01/26 01:44:12;;;;;;;24.23;10.40;;;;;;;-1.17;100.00;97723.22;4959995;28;20050;-60
2023/01/26 01:46:47;;;;;;;20.13;10.52;;;;;;;-1.13;100.00;97721.06;4965266;28;20125;-60
2023/01/26 01:49:19;;;;;;;26.45;10.48;;;;;;;-1.17;100.00;97717.91;4960105;28;20051;-60
2023/01/26 01:51:52;;;;;;;24.45;10.13;;;;;;;-1.25;100.00;97721.41;4963597;28;22029;-60
2023/01/26 01:54:26;;;;;;;25.02;10.77;;;;;;;-1.19;100.00;97718.09;4960825;28;20054;-60
2023/01/26 01:56:56;;;;;;;24.00;10.27;;;;;;;-1.23;100.00;97707.94;4963678;28;20130;-59
2023/01/26 01:59:24;;;;;;;25.70;10.63;;;;;;;-1.24;100.00;97708.94;4960899;28;20047;-60
2023/01/26 02:01:52;;;;;;;27.73;11.60;;;;;;;-1.26;100.00;97714.44;4956928;28;20077;-61
2023/01/26 02:04:21;;;;;;;26.33;11.30;;;;;;;-1.25;100.00;97708.09;4956479;28;20543;-61
2023/01/26 02:06:51;;;;;;;22.60;9.35;;;;;;;-1.26;100.00;97711.78;4962640;28;20569;-61
2023/01/26 02:12:26;;;;;;;25.48;10.88;;;;;;;-1.27;100.00;97718.09;4964410;28;20047;-62
2023/01/26 02:14:52;;;;;;;25.10;10.05;;;;;;;-1.35;100.00;97716.28;4958884;28;20070;-60
2023/01/26 02:17:20;;;;;;;24.30;10.82;;;;;;;-1.26;100.00;97706.47;4961578;28;20141;-60
2023/01/26 02:20:05;;;;;;;24.92;10.25;;;;;;;-1.24;100.00;97703.63;4947714;28;20051;-60
2023/01/26 02:22:48;;;;;;;24.27;10.45;;;;;;;-1.28;100.00;97708.47;4958930;28;20039;-60
2023/01/26 02:25:20;;;;;;;25.08;10.27;;;;;;;-1.31;100.00;97709.63;4958833;28;20051;-61
2023/01/26 02:27:47;;;;;;;23.83;11.10;;;;;;;-1.32;100.00;97705.28;4953797;28;20048;-61
2023/01/26 02:30:15;;;;;;;26.20;10.90;;;;;;;-1.33;100.00;97702.84;4957318;28;20562;-60
2023/01/26 02:32:42;;;;;;;24.10;10.38;;;;;;;-1.28;100.00;97689.88;4965569;28;20105;-61
2023/01/26 02:35:09;;;;;;;22.80;9.35;;;;;;;-1.35;100.00;97688.88;4966503;28;20038;-60
2023/01/26 02:37:36;;;;;;;20.77;9.52;;;;;;;-1.33;100.00;97689.53;4961051;28;20466;-61
2023/01/26 02:40:19;;;;;;;20.55;9.38;;;;;;;-1.33;100.00;97698.31;4949081;28;20035;-60
2023/01/26 02:42:46;;;;;;;21.50;9.23;;;;;;;-1.35;100.00;97686.22;4964316;28;20062;-61
2023/01/26 02:45:14;;;;;;;26.63;11.45;;;;;;;-1.18;100.00;97695.81;4961066;28;20119;-60
2023/01/26 02:47:43;;;;;;;28.67;12.40;;;;;;;-1.23;100.00;97687.53;4961720;28;20051;-61
2023/01/26 02:50:10;;;;;;;33.25;12.68;;;;;;;-1.27;100.00;97688.03;4958129;28;20047;-61
2023/01/26 02:52:38;;;;;;;31.05;10.88;;;;;;;-1.23;100.00;97689.34;4959377;28;20047;-61
2023/01/26 02:55:23;;;;;;;30.67;10.60;;;;;;;-1.42;100.00;97690.53;4962580;28;20046;-61
2023/01/26 02:57:59;;;;;;;24.38;10.93;;;;;;;-1.42;100.00;97690.53;4963425;28;20047;-61
2023/01/26 03:00:35;;;;;;;27.80;12.13;;;;;;;-1.60;100.00;97695.03;4956360;28;20137;-60
2023/01/26 03:03:40;;;;;;;24.73;10.70;;;;;;;-1.52;100.00;97690.72;4963715;28;20038;-60
2023/01/26 03:06:12;;;;;;;28.38;11.45;;;;;;;-1.52;100.00;97685.41;4961093;28;20043;-61
2023/01/26 03:08:38;;;;;;;24.55;11.48;;;;;;;-1.47;100.00;97689.19;4962873;28;20047;-61
2023/01/26 03:11:06;;;;;;;30.10;11.52;;;;;;;-1.50;100.00;97688.72;4958545;28;20043;-60
2023/01/26 03:13:33;;;;;;;30.60;12.27;;;;;;;-1.53;100.00;97684.56;4961466;28;20517;-60
2023/01/26 03:16:05;;;;;;;32.47;12.43;;;;;;;-1.63;100.00;97678.56;4964942;28;20126;-62
2023/01/26 03:29:44;;;;;;;29.85;11.70;;;;;;;-1.53;100.00;97673.94;4952925;28;20043;-61
2023/01/26 03:32:11;;;;;;;33.63;11.77;;;;;;;-1.59;100.00;97667.47;4959263;28;20050;-61
2023/01/26 03:34:40;;;;;;;31.27;13.02;;;;;;;-1.47;100.00;97670.59;4962787;28;20050;-61
2023/01/26 03:37:07;;;;;;;34.80;13.93;;;;;;;-1.54;100.00;97671.44;4984029;28;20546;-60
2023/01/26 03:56:32;;;;;;;29.60;12.05;;;;;;;-1.70;100.00;97658.00;4954959;28;20053;-60
2023/01/26 03:59:14;;;;;;;25.90;11.05;;;;;;;-1.67;100.00;97642.75;4962979;28;20066;-61
2023/01/26 04:10:05;;;;;;;30.10;12.23;;;;;;;-1.71;100.00;97642.25;4957973;28;20525;-60
2023/01/26 04:12:32;;;;;;;24.40;11.07;;;;;;;-1.62;100.00;97645.75;4960619;28;20042;-60
2023/01/26 04:23:38;;;;;;;29.42;12.88;;;;;;;-1.93;100.00;97639.25;4958919;28;20102;-60
2023/01/26 04:26:05;;;;;;;29.83;11.82;;;;;;;-1.86;100.00;97650.88;4960381;28;20043;-59
2023/01/26 04:28:31;;;;;;;25.02;11.35;;;;;;;-1.89;100.00;97648.56;4962901;28;20109;-60
2023/01/26 04:30:58;;;;;;;31.17;13.00;;;;;;;-1.90;100.00;97646.06;4960160;28;20049;-61
2023/01/26 04:33:24;;;;;;;30.42;11.45;;;;;;;-1.97;100.00;97645.91;4962880;28;20050;-60
2023/01/26 04:35:51;;;;;;;27.88;11.73;;;;;;;-1.99;100.00;97639.94;4965139;28;20039;-61
2023/01/26 04:38:19;;;;;;;28.65;11.52;;;;;;;-1.98;100.00;97650.34;4955397;28;20042;-60
2023/01/26 04:40:52;;;;;;;33.55;11.98;;;;;;;-1.99;100.00;97643.41;4954718;28;20069;-61
2023/01/26 04:43:19;;;;;;;26.05;11.35;;;;;;;-2.05;100.00;97651.19;4960552;28;20138;-61
2023/01/26 04:46:00;;;;;;;23.42;10.77;;;;;;;-2.11;100.00;97642.91;4964302;28;20038;-61
2023/01/26 04:48:29;;;;;;;28.30;11.82;;;;;;;-2.09;100.00;97645.41;4958705;28;20134;-57
2023/01/26 04:50:59;;;;;;;30.05;13.00;;;;;;;-2.03;100.00;97639.41;4960737;28;20521;-57
2023/01/26 04:53:26;;;;;;;29.52;13.15;;;;;;;-1.99;100.00;97639.94;4959015;28;20142;-57
2023/01/26 04:55:54;;;;;;;26.80;11.57;;;;;;;-2.01;100.00;97636.59;4958856;28;20035;-59
2023/01/26 04:58:21;;;;;;;28.35;12.02;;;;;;;-1.96;100.00;97635.13;4960848;28;20054;-58
2023/01/26 05:00:52;;;;;;;24.42;12.43;;;;;;;-2.14;100.00;97631.78;4958652;28;20413;-59
2023/01/26 05:03:19;;;;;;;26.65;11.85;;;;;;;-2.07;100.00;97632.78;4957309;28;20227;-57
2023/01/26 05:05:51;;;;;;;28.33;11.65;;;;;;;-2.00;100.00;97633.78;4958682;28;20094;-60
2023/01/26 05:08:21;;;;;;;28.30;12.43;;;;;;;-2.04;100.00;97628.97;4959487;28;20057;-59
2023/01/26 05:10:48;;;;;;;25.42;11.35;;;;;;;-1.95;100.00;97643.91;4959834;28;20431;-58
2023/01/26 05:13:21;;;;;;;30.42;11.43;;;;;;;-2.01;100.00;97629.47;4961726;28;20070;-58
2023/01/26 05:16:13;;;;;;;29.05;12.52;;;;;;;-2.04;100.00;97637.75;4960354;28;20039;-60
2023/01/26 05:19:01;;;;;;;23.30;11.45;;;;;;;-2.09;100.00;97629.47;4960611;28;20050;-57
2023/01/26 05:21:51;;;;;;;25.70;12.15;;;;;;;-2.30;100.00;97622.81;4954451;28;20124;-58
2023/01/26 05:24:18;;;;;;;22.90;9.45;;;;;;;-2.15;100.00;97630.94;4961401;28;20070;-58
2023/01/26 05:29:51;;;;;;;23.17;8.63;;;;;;;-2.12;100.00;97625.31;4964163;28;20098;-58
2023/01/26 05:32:18;;;;;;;19.50;9.23;;;;;;;-2.23;100.00;97628.28;4957749;28;20130;-58
2023/01/26 05:34:45;;;;;;;23.40;10.95;;;;;;;-2.19;100.00;97626.97;4956789;28;20047;-57
2023/01/26 05:37:12;;;;;;;25.13;10.57;;;;;;;-2.13;100.00;97636.91;4957576;28;20044;-60
2023/01/26 05:39:42;;;;;;;26.08;11.80;;;;;;;-2.07;100.00;97629.31;4955965;28;20039;-59
2023/01/26 05:42:12;;;;;;;29.38;12.93;;;;;;;-2.09;100.00;97634.78;4955331;28;20043;-59
2023/01/26 05:45:03;;;;;;;24.70;11.40;;;;;;;-2.09;100.00;97632.94;4955421;28;20077;-58
2023/01/26 05:47:31;;;;;;;26.85;10.82;;;;;;;-2.07;100.00;97637.28;4959581;28;20046;-60
2023/01/26 05:49:57;;;;;;;26.50;10.95;;;;;;;-2.16;100.00;97633.75;4965047;28;20042;-59
2023/01/26 05:52:28;;;;;;;25.83;10.70;;;;;;;-2.16;100.00;97634.59;4958659;28;20061;-58
2023/01/26 05:54:54;;;;;;;25.48;11.38;;;;;;;-2.26;100.00;97626.78;4957472;28;20088;-59
2023/01/26 05:57:22;;;;;;;22.58;10.40;;;;;;;-2.36;100.00;97631.44;4927151;28;20057;-57
2023/01/26 05:59:53;;;;;;;24.00;11.00;;;;;;;-2.31;100.00;97634.41;4966697;28;20066;-58
2023/01/26 06:02:20;;;;;;;28.45;10.90;;;;;;;-2.17;100.00;97630.31;4951937;28;20825;-58
2023/01/26 06:04:47;;;;;;;25.90;11.88;;;;;;;-2.37;100.00;97627.94;4952746;28;20047;-61
2023/01/26 06:07:14;;;;;;;20.90;11.05;;;;;;;-2.35;100.00;97631.25;4960041;28;20050;-57
2023/01/26 06:10:05;;;;;;;28.52;11.82;;;;;;;-2.28;100.00;97623.47;4960942;28;20039;-58
2023/01/26 06:12:41;;;;;;;25.25;9.93;;;;;;;-2.37;100.00;97627.09;4958208;28;20137;-57
2023/01/26 06:15:31;;;;;;;25.58;12.20;;;;;;;-2.10;100.00;97627.81;4961957;28;20050;-57
2023/01/26 06:17:59;;;;;;;26.00;12.43;;;;;;;-2.09;100.00;97629.47;4969439;28;20062;-58
2023/01/26 06:20:26;;;;;;;24.67;10.57;;;;;;;-2.11;100.00;97634.94;4956500;28;20057;-59
2023/01/26 06:23:00;;;;;;;33.70;11.38;;;;;;;-2.04;100.00;97629.81;4954609;28;20043;-59
2023/01/26 06:25:28;;;;;;;21.02;9.98;;;;;;;-1.96;100.00;97634.28;4958765;28;20043;-59
2023/01/26 06:27:58;;;;;;;25.48;10.43;;;;;;;-1.97;100.00;97635.28;4970172;28;20078;-56
2023/01/26 06:30:26;;;;;;;31.33;11.93;;;;;;;-2.03;100.00;97626.16;4957031;28;20119;-60
2023/01/26 06:32:57;;;;;;;23.60;11.30;;;;;;;-2.09;100.00;97629.47;4957079;28;20423;-59
2023/01/26 06:35:26;;;;;;;25.90;13.25;;;;;;;-2.09;100.00;97624.16;4964289;28;20599;-61
2023/01/26 06:37:55;;;;;;;21.95;9.93;;;;;;;-2.29;100.00;97628.94;4952710;28;20426;-58
2023/01/26 06:40:21;;;;;;;27.77;11.77;;;;;;;-2.31;100.00;97639.72;4959284;28;20108;-59
2023/01/26 06:42:48;;;;;;;39.10;18.25;;;;;;;-1.96;100.00;97636.94;4951184;28;20051;-59
2023/01/26 06:45:19;;;;;;;27.42;12.80;;;;;;;-2.01;100.00;97634.78;4955464;28;20211;-59
2023/01/26 06:47:47;;;;;;;21.55;10.00;;;;;;;-2.08;100.00;97633.78;4960018;28;20043;-61
2023/01/26 06:50:17;;;;;;;20.60;9.27;;;;;;;-2.02;100.00;97637.59;4953437;28;20530;-61
2023/01/26 06:52:53;;;;;;;25.77;12.52;;;;;;;-2.10;100.00;97639.25;4956572;28;20043;-59
2023/01/26 06:55:45;;;;;;;27.17;12.63;;;;;;;-1.90;100.00;97638.94;4955745;28;20461;-60
2023/01/26 06:58:29;;;;;;;24.38;10.20;;;;;;;-2.09;100.00;97635.59;4953700;28;20110;-60
2023/01/26 07:01:19;;;;;;;23.35;10.52;;;;;;;-2.00;100.00;97636.44;4950381;28;20039;-58
2023/01/26 07:03:50;;;;;;;23.55;11.13;;;;;;;-2.00;100.00;97641.75;4952144;28;20062;-56
2023/01/26 07:06:17;;;;;;;24.80;10.57;;;;;;;-2.01;100.00;97642.75;4953211;28;20130;-58
2023/01/26 07:08:43;;;;;;;25.30;11.50;;;;;;;-2.06;100.00;97644.22;4960424;28;20382;-59
2023/01/26 07:11:11;;;;;;;24.52;10.65;;;;;;;-1.94;100.00;97644.72;4956282;28;20043;-57
2023/01/26 07:13:38;;;;;;;22.35;10.50;;;;;;;-1.94;100.00;97642.06;4957230;28;20277;-58
2023/01/26 07:16:07;;;;;;;21.77;10.05;;;;;;;-2.04;100.00;97637.75;4951922;28;20317;-57
2023/01/26 07:18:35;;;;;;;15.32;7.20;;;;;;;-2.14;100.00;97645.06;4961529;28;20130;-55
2023/01/26 07:21:09;;;;;;;21.83;9.45;;;;;;;-2.17;100.00;97638.25;4957133;28;20055;-58
2023/01/26 07:23:35;;;;;;;19.70;9.25;;;;;;;-2.03;100.00;97650.03;4963587;28;20038;-58
2023/01/26 07:26:02;;;;;;;27.15;13.05;;;;;;;-2.07;100.00;97653.19;4964234;28;20524;-57
2023/01/26 07:28:29;;;;;;;21.00;10.88;;;;;;;-1.93;100.00;97657.00;4957986;28;20059;-59
2023/01/26 07:30:57;;;;;;;14.40;6.95;;;;;;;-1.97;100.00;97651.19;4964275;28;20502;-58
2023/01/26 07:33:23;;;;;;;19.95;8.15;;;;;;;-1.99;100.00;97651.34;4964897;28;20061;-58
2023/01/26 07:35:54;;;;;;;15.32;7.18;;;;;;;-1.87;100.00;97657.19;4963804;28;20122;-58
2023/01/26 07:38:21;;;;;;;14.57;6.25;;;;;;;-2.02;100.00;97653.53;4960424;28;20133;-58
2023/01/26 07:40:48;;;;;;;13.77;6.13;;;;;;;-2.05;100.00;97648.53;4964452;28;20047;-58
2023/01/26 07:43:15;;;;;;;13.15;6.38;;;;;;;-2.11;100.00;97642.06;4962167;28;20537;-59
2023/01/26 07:45:53;;;;;;;20.27;7.20;;;;;;;-2.20;100.00;97651.84;4955151;28;20038;-57
2023/01/26 07:48:21;;;;;;;18.25;7.30;;;;;;;-2.04;100.00;97648.38;4956323;28;20085;-59
2023/01/26 07:50:48;;;;;;;13.80;6.25;;;;;;;-1.97;100.00;97654.69;4961808;28;20046;-58
2023/01/26 07:53:21;;;;;;;13.93;6.38;;;;;;;-1.97;100.00;97649.38;4958653;28;20046;-61
2023/01/26 07:55:48;;;;;;;13.13;6.38;;;;;;;-2.06;100.00;97642.41;4959136;28;20058;-59
2023/01/26 07:58:17;;;;;;;15.50;6.90;;;;;;;-2.01;100.00;97653.38;4951289;28;20198;-54
2023/01/26 08:00:46;;;;;;;14.18;6.57;;;;;;;-1.94;100.00;97645.56;4963012;28;20089;-60
2023/01/26 08:03:12;;;;;;;12.15;5.68;;;;;;;-1.94;100.00;97648.22;4961615;28;20055;-59
2023/01/26 08:05:39;;;;;;;16.95;7.63;;;;;;;-1.89;100.00;97648.56;4958531;28;20047;-58
2023/01/26 08:08:05;;;;;;;13.52;6.00;;;;;;;-1.86;100.00;97656.19;4960925;28;20577;-58
2023/01/26 08:10:32;;;;;;;13.98;6.75;;;;;;;-1.86;100.00;97660.66;4958957;28;20039;-58
2023/01/26 08:12:59;;;;;;;13.95;6.30;;;;;;;-2.06;100.00;97652.19;4954737;28;20099;-59
2023/01/26 08:15:27;;;;;;;14.40;7.47;;;;;;;-2.16;100.00;97658.47;4961297;28;20977;-59
2023/01/26 08:17:54;;;;;;;17.05;5.40;;;;;;;-1.99;100.00;97654.00;4961002;28;20051;-58
2023/01/26 08:20:21;;;;;;;17.63;7.35;;;;;;;-2.09;100.00;97662.13;4961337;28;20074;-59
2023/01/26 08:22:47;;;;;;;14.02;6.60;;;;;;;-2.02;100.00;97654.38;4960915;28;20064;-59
2023/01/26 08:25:14;;;;;;;15.65;6.28;;;;;;;-1.89;100.00;97666.28;4948879;28;20038;-59
2023/01/26 08:27:40;;;;;;;13.55;6.72;;;;;;;-1.92;100.00;97662.16;4957970;28;20074;-58
2023/01/26 08:30:07;;;;;;;16.70;6.95;;;;;;;-1.98;100.00;97660.97;4954556;28;20118;-59
2023/01/26 08:32:34;;;;;;;13.68;6.95;;;;;;;-1.85;100.00;97663.16;4962289;28;20058;-59
2023/01/26 08:35:01;;;;;;;19.33;8.18;;;;;;;-1.87;100.00;97664.31;4959992;28;20494;-58
2023/01/26 08:37:27;;;;;;;16.52;7.35;;;;;;;-1.86;100.00;97658.00;4961073;28;20546;-58
2023/01/26 08:39:54;;;;;;;16.77;7.20;;;;;;;-1.87;100.00;97654.53;4954498;28;20039;-59
2023/01/26 08:42:20;;;;;;;20.95;8.25;;;;;;;-2.05;100.00;97651.19;4954126;28;20108;-59
2023/01/26 08:44:48;;;;;;;23.85;7.50;;;;;;;-2.05;100.00;97643.22;4961963;28;20057;-59
2023/01/26 08:47:14;;;;;;;17.73;7.35;;;;;;;-1.94;100.00;97645.56;4958409;28;20115;-55
2023/01/26 08:49:41;;;;;;;15.35;6.25;;;;;;;-1.81;100.00;97650.38;4958813;28;20062;-60
2023/01/26 08:52:07;;;;;;;12.27;6.63;;;;;;;-1.80;100.00;97648.56;4955438;28;20426;-58
2023/01/26 08:54:34;;;;;;;14.27;6.82;;;;;;;-1.71;100.00;97642.25;4960475;28;20054;-59
2023/01/26 08:57:00;;;;;;;13.73;6.60;;;;;;;-1.91;100.00;97653.22;4955328;28;20125;-59
2023/01/26 08:59:27;;;;;;;12.85;5.68;;;;;;;-1.80;100.00;97656.53;4954472;28;20493;-60
2023/01/26 09:01:54;;;;;;;13.45;6.43;;;;;;;-1.78;100.00;97652.69;4963545;28;20043;-58
2023/01/26 09:04:21;;;;;;;12.77;5.57;;;;;;;-1.92;100.00;97643.56;4964563;28;20515;-58
2023/01/26 09:06:47;;;;;;;14.52;5.78;;;;;;;-1.86;100.00;97655.34;4958082;28;20041;-59
2023/01/26 09:09:14;;;;;;;15.10;6.55;;;;;;;-1.85;100.00;97646.38;4966540;28;20047;-59
2023/01/26 09:11:40;;;;;;;18.15;6.68;;;;;;;-1.97;100.00;97649.38;4962194;28;20074;-59
2023/01/26 09:14:07;;;;;;;19.95;7.90;;;;;;;-1.97;100.00;97640.59;4964942;28;20066;-59
2023/01/26 09:16:33;;;;;;;17.90;7.32;;;;;;;-2.21;100.00;97644.88;4956417;28;20537;-60
2023/01/26 09:19:00;;;;;;;17.52;7.82;;;;;;;-2.14;100.00;97648.53;4959865;28;20105;-59
2023/01/26 09:21:27;;;;;;;15.02;7.47;;;;;;;-2.10;100.00;97649.03;4960925;28;20133;-60
2023/01/26 09:23:55;;;;;;;14.98;7.18;;;;;;;-1.97;100.00;97649.38;4956874;28;20378;-59
2023/01/26 09:26:22;;;;;;;12.18;6.25;;;;;;;-1.85;100.00;97651.69;4951801;28;20047;-59
2023/01/26 09:28:50;;;;;;;12.75;5.88;;;;;;;-1.81;100.00;97653.03;4956093;28;20098;-58
2023/01/26 09:31:17;;;;;;;15.98;6.25;;;;;;;-1.77;100.00;97654.34;4961670;28;20391;-58
2023/01/26 09:33:44;;;;;;;13.48;6.22;;;;;;;-1.68;100.00;97654.34;4955032;28;20116;-58
2023/01/26 09:36:11;;;;;;;14.70;5.90;;;;;;;-1.64;100.00;97658.34;4961177;28;20070;-61
2023/01/26 09:38:39;;;;;;;15.60;6.45;;;;;;;-1.57;100.00;97654.03;4956619;28;20050;-60
2023/01/26 09:41:11;;;;;;;16.55;7.57;;;;;;;-1.54;100.00;97659.00;4963639;28;20053;-59
2023/01/26 09:43:51;;;;;;;14.98;6.57;;;;;;;-1.71;100.00;97653.72;4960272;28;20039;-59
2023/01/26 09:46:26;;;;;;;16.55;7.55;;;;;;;-1.73;100.00;97661.00;4957405;28;20051;-61
2023/01/26 09:49:05;;;;;;;15.52;7.13;;;;;;;-1.57;100.00;97654.88;4962044;28;20055;-59
2023/01/26 09:51:31;;;;;;;14.77;7.35;;;;;;;-1.77;100.00;97658.84;4953963;28;20047;-59
2023/01/26 09:54:04;;;;;;;17.27;7.93;;;;;;;-1.68;100.00;97655.19;4956978;28;20102;-59
2023/01/26 09:56:32;;;;;;;16.92;8.02;;;;;;;-1.86;100.00;97658.00;4955038;28;20100;-59
2023/01/26 09:59:22;;;;;;;15.05;6.47;;;;;;;-1.83;100.00;97649.72;4955613;28;20043;-57
2023/01/26 10:01:58;;;;;;;16.48;6.90;;;;;;;-1.75;100.00;97663.00;4959948;28;20050;-57
2023/01/26 10:04:36;;;;;;;18.00;6.80;;;;;;;-1.82;100.00;97651.38;4959707;28;20047;-57
2023/01/26 10:07:10;;;;;;;14.77;6.47;;;;;;;-1.94;100.00;97647.38;4956327;28;20042;-58
2023/01/26 10:09:50;;;;;;;15.45;7.38;;;;;;;-1.87;100.00;97645.72;4962977;28;20051;-59
2023/01/26 10:12:23;;;;;;;16.55;7.72;;;;;;;-1.68;100.00;97646.38;4957519;28;20039;-59
2023/01/26 10:15:09;;;;;;;13.88;6.50;;;;;;;-1.65;100.00;97646.06;4926924;28;20053;-56
2023/01/26 10:17:42;;;;;;;17.58;7.78;;;;;;;-2.01;100.00;97645.41;4954691;28;20043;-57
2023/01/26 10:20:21;;;;;;;14.85;6.68;;;;;;;-1.87;100.00;97643.09;4956605;28;20434;-59
2023/01/26 10:22:51;;;;;;;14.63;6.35;;;;;;;-1.75;100.00;97648.88;4958422;28;20074;-58
2023/01/26 10:25:34;;;;;;;13.45;6.63;;;;;;;-1.66;100.00;97647.88;4959997;28;20495;-57
2023/01/26 10:28:15;;;;;;;17.27;7.55;;;;;;;-1.50;100.00;97647.06;4957880;28;20039;-58
2023/01/26 10:30:44;;;;;;;15.52;7.88;;;;;;;-1.40;100.00;97648.69;4964073;28;20062;-58
2023/01/26 10:33:18;;;;;;;18.48;8.27;;;;;;;-1.37;100.00;97640.41;4956161;28;20298;-59
2023/01/26 10:35:45;;;;;;;15.13;7.70;;;;;;;-1.66;100.00;97645.22;4955502;28;20047;-58
2023/01/26 10:38:36;;;;;;;21.58;10.52;;;;;;;-1.81;100.00;97642.41;4955526;28;20130;-59
2023/01/26 10:41:18;;;;;;;22.67;9.63;;;;;;;-1.80;100.00;97641.44;4961129;28;20038;-58
2023/01/26 10:44:01;;;;;;;21.02;10.32;;;;;;;-1.76;100.00;97641.91;4948677;28;20509;-58
2023/01/26 10:46:34;;;;;;;22.58;9.52;;;;;;;-1.79;100.00;97648.41;4960318;28;20076;-58
2023/01/26 10:49:13;;;;;;;15.75;7.35;;;;;;;-1.77;100.00;97638.44;4951209;28;20046;-59
2023/01/26 10:51:45;;;;;;;22.80;9.48;;;;;;;-1.79;100.00;97643.09;4955033;28;20035;-58
2023/01/26 10:54:19;;;;;;;19.45;9.32;;;;;;;-2.16;100.00;97631.13;4962044;28;20089;-58
2023/01/26 10:56:52;;;;;;;18.77;8.48;;;;;;;-2.05;100.00;97630.81;4960079;28;20039;-58
2023/01/26 10:59:22;;;;;;;21.17;9.13;;;;;;;-2.16;100.00;97634.59;4952885;28;20067;-57
2023/01/26 11:01:54;;;;;;;22.40;9.27;;;;;;;-2.00;100.00;97639.09;4950194;28;20074;-58
2023/01/26 11:04:23;;;;;;;23.75;9.85;;;;;;;-1.98;100.00;97634.44;4959971;28;20089;-58
2023/01/26 11:06:50;;;;;;;18.17;7.82;;;;;;;-1.87;100.00;97628.00;4957554;28;20643;-57
2023/01/26 11:09:20;;;;;;;19.60;8.30;;;;;;;-1.90;100.00;97638.09;4953119;28;20474;-58
2023/01/26 11:11:56;;;;;;;21.17;8.95;;;;;;;-1.88;100.00;97636.13;4957306;28;20658;-58
2023/01/26 11:14:23;;;;;;;21.45;9.23;;;;;;;-1.98;100.00;97626.47;4955142;28;20051;-58
2023/01/26 11:16:56;;;;;;;19.23;8.25;;;;;;;-1.96;100.00;97627.16;4960567;28;20101;-58
2023/01/26 11:19:54;;;;;;;21.60;9.18;;;;;;;-1.93;100.00;97617.19;4961039;28;20097;-59
2023/01/26 11:22:37;;;;;;;22.33;8.10;;;;;;;-1.97;100.00;97620.19;4945768;28;20067;-60
2023/01/26 11:25:25;;;;;;;21.58;8.15;;;;;;;-2.03;100.00;97612.88;4957278;28;20051;-58
2023/01/26 11:28:07;;;;;;;18.17;8.10;;;;;;;-1.98;100.00;97610.53;4953348;28;20046;-58
2023/01/26 11:31:02;;;;;;;;;;;;;;;-1.94;100.00;97605.75;4960491;28;20264;-58
2023/01/26 11:34:01;;;;;;;21.13;9.73;;;;;;;-2.07;100.00;97611.53;4959630;28;19960;-60
2023/01/26 11:36:39;;;;;;;20.80;9.95;;;;;;;-2.11;100.00;97612.88;4961364;28;20418;-60
2023/01/26 11:39:34;;;;;;;15.40;7.15;;;;;;;-2.01;100.00;97602.94;4960167;28;20070;-59
2023/01/26 11:42:17;;;;;;;19.27;7.95;;;;;;;-1.92;100.00;97600.28;4959591;28;20082;-60
2023/01/26 11:44:54;;;;;;;20.95;8.60;;;;;;;-1.93;100.00;97598.59;4960889;28;20050;-59
2023/01/26 11:47:25;;;;;;;20.10;8.80;;;;;;;-1.92;100.00;97600.28;4959340;28;20061;-59
2023/01/26 11:50:15;;;;;;;19.83;8.10;;;;;;;-1.84;100.00;97594.97;4958878;28;20043;-58
2023/01/26 11:53:06;;;;;;;18.58;7.88;;;;;;;-1.92;100.00;97598.44;4960580;28;20054;-59
2023/01/26 11:56:02;;;;;;;15.85;6.85;;;;;;;-2.09;100.00;97593.13;4954498;28;20669;-59
2023/01/26 11:58:54;;;;;;;20.00;9.05;;;;;;;-1.86;100.00;97596.97;4960622;28;20093;-58
2023/01/26 12:01:30;;;;;;;20.92;7.82;;;;;;;-2.01;100.00;97587.03;4957664;28;20082;-58
2023/01/26 12:03:56;;;;;;;22.65;10.00;;;;;;;-2.00;100.00;97578.06;4950837;28;20070;-59
2023/01/26 12:06:44;;;;;;;20.48;9.80;;;;;;;-1.92;100.00;97584.38;4956908;28;20074;-59
2023/01/26 12:09:37;;;;;;;18.45;8.48;;;;;;;-2.22;100.00;97579.53;4957225;28;20126;-58
2023/01/26 12:12:12;;;;;;;20.75;7.65;;;;;;;-2.20;100.00;97576.72;4954879;28;20109;-57
2023/01/26 12:14:50;;;;;;;18.70;8.65;;;;;;;-2.17;100.00;97576.41;4958685;28;20091;-59
2023/01/26 12:17:50;;;;;;;21.48;8.70;;;;;;;-2.10;100.00;97562.28;4955546;28;20118;-58
2023/01/26 12:20:28;;;;;;;17.13;7.95;;;;;;;-2.26;100.00;97560.47;4958734;28;20042;-59
2023/01/26 12:23:20;;;;;;;17.30;8.85;;;;;;;-2.27;100.00;97564.13;4960001;28;20554;-59
2023/01/26 12:25:53;;;;;;;22.60;9.40;;;;;;;-2.32;100.00;97558.47;4939491;28;20494;-58